createdAt,value
2023-07-18T00:00:26.260Z,0.00
2023-07-18T00:01:26.417Z,0.00
2023-07-18T00:02:26.249Z,0.00
2023-07-18T00:03:26.283Z,0.00
2023-07-18T00:04:26.214Z,0.00
2023-07-18T00:05:49.236Z,0.00
2023-07-18T00:06:25.252Z,0.00
2023-07-18T00:07:25.253Z,0.00
2023-07-18T00:08:27.723Z,0.00
2023-07-18T00:09:25.735Z,0.00
2023-07-18T00:10:25.215Z,0.00
2023-07-18T00:11:25.245Z,0.00
2023-07-18T00:12:25.733Z,0.00
2023-07-18T00:13:25.718Z,0.00
2023-07-18T00:14:25.151Z,0.00
2023-07-18T00:15:25.253Z,0.00
2023-07-18T00:16:25.227Z,0.00
2023-07-18T00:17:25.163Z,0.00
2023-07-18T00:18:25.126Z,0.00
2023-07-18T00:19:25.098Z,0.00
2023-07-18T00:20:25.103Z,0.00
2023-07-18T00:21:31.713Z,0.00
2023-07-18T00:22:25.067Z,0.00
2023-07-18T00:23:27.140Z,0.00
2023-07-18T00:24:25.724Z,0.00
2023-07-18T00:25:25.079Z,0.00
2023-07-18T00:26:25.721Z,0.00
2023-07-18T00:27:29.803Z,0.00
2023-07-18T00:28:25.725Z,0.00
2023-07-18T00:29:25.004Z,0.00
2023-07-18T00:30:24.961Z,0.00
2023-07-18T00:31:25.033Z,0.00
2023-07-18T00:32:27.730Z,0.00
2023-07-18T00:33:24.938Z,0.00
2023-07-18T00:34:24.940Z,0.00
2023-07-18T00:35:25.729Z,0.00
2023-07-18T00:36:24.921Z,0.00
2023-07-18T00:37:28.779Z,0.00
2023-07-18T00:38:27.728Z,0.00
2023-07-18T00:39:25.758Z,0.00
2023-07-18T00:40:31.724Z,0.00
2023-07-18T00:41:25.761Z,0.00
2023-07-18T00:42:24.853Z,0.00
2023-07-18T00:43:31.725Z,0.00
2023-07-18T00:44:24.816Z,0.00
2023-07-18T00:45:24.790Z,0.00
2023-07-18T00:46:24.805Z,0.00
2023-07-18T00:47:25.763Z,0.00
2023-07-18T00:48:27.727Z,0.00
2023-07-18T00:49:25.723Z,0.00
2023-07-18T00:50:25.735Z,0.00
2023-07-18T00:51:24.768Z,0.00
2023-07-18T00:52:24.750Z,0.00
2023-07-18T00:53:31.225Z,0.00
2023-07-18T00:54:31.258Z,0.00
2023-07-18T00:55:24.762Z,0.00
2023-07-18T00:56:24.699Z,0.00
2023-07-18T00:57:31.220Z,0.00
2023-07-18T00:58:24.667Z,0.00
2023-07-18T00:59:27.228Z,0.00
2023-07-18T01:00:24.653Z,0.00
2023-07-18T01:01:24.813Z,0.00
2023-07-18T01:02:24.743Z,0.00
2023-07-18T01:03:27.303Z,0.00
2023-07-18T01:04:24.677Z,0.00
2023-07-18T01:05:27.229Z,0.00
2023-07-18T01:06:24.758Z,0.00
2023-07-18T01:07:24.625Z,0.00
2023-07-18T01:08:25.611Z,0.00
2023-07-18T01:09:24.533Z,0.00
2023-07-18T01:10:27.242Z,0.00
2023-07-18T01:11:24.546Z,0.00
2023-07-18T01:12:27.249Z,0.00
2023-07-18T01:13:25.223Z,0.00
2023-07-18T01:14:24.764Z,0.00
2023-07-18T01:15:24.510Z,0.00
2023-07-18T01:16:25.277Z,0.00
2023-07-18T01:17:39.252Z,0.00
2023-07-18T01:18:24.462Z,0.00
2023-07-18T01:19:24.446Z,0.00
2023-07-18T01:20:25.223Z,0.00
2023-07-18T01:21:24.407Z,0.00
2023-07-18T01:22:24.389Z,0.00
2023-07-18T01:23:27.229Z,0.00
2023-07-18T01:24:24.407Z,0.00
2023-07-18T01:25:24.358Z,0.00
2023-07-18T01:26:24.367Z,0.00
2023-07-18T01:27:24.342Z,0.00
2023-07-18T01:28:24.335Z,0.00
2023-07-18T01:29:27.230Z,0.00
2023-07-18T01:30:24.340Z,0.00
2023-07-18T01:31:24.355Z,0.00
2023-07-18T01:32:27.249Z,0.00
2023-07-18T01:33:27.231Z,0.00
2023-07-18T01:34:24.289Z,0.00
2023-07-18T01:35:31.238Z,0.00
2023-07-18T01:36:26.318Z,0.00
2023-07-18T01:37:26.278Z,0.00
2023-07-18T01:38:24.729Z,0.00
2023-07-18T01:39:24.243Z,0.00
2023-07-18T01:40:26.782Z,0.00
2023-07-18T01:41:24.219Z,0.00
2023-07-18T01:42:24.190Z,0.00
2023-07-18T01:43:26.727Z,0.00
2023-07-18T01:44:24.265Z,0.00
2023-07-18T01:45:24.175Z,0.00
2023-07-18T01:46:24.164Z,0.00
2023-07-18T01:47:27.775Z,0.00
2023-07-18T01:48:24.266Z,0.00
2023-07-18T01:49:26.754Z,0.00
2023-07-18T01:50:24.256Z,0.00
2023-07-18T01:51:24.107Z,0.00
2023-07-18T01:52:24.054Z,0.00
2023-07-18T01:53:24.273Z,0.00
2023-07-18T01:54:24.068Z,0.00
2023-07-18T01:55:24.085Z,0.00
2023-07-18T01:56:30.732Z,0.00
2023-07-18T01:57:24.002Z,0.00
2023-07-18T01:58:24.010Z,0.00
2023-07-18T01:59:23.997Z,0.00
2023-07-18T02:00:24.731Z,0.00
2023-07-18T02:01:24.030Z,0.00
2023-07-18T02:02:24.065Z,0.00
2023-07-18T02:03:24.008Z,0.00
2023-07-18T02:04:23.954Z,0.00
2023-07-18T02:05:23.926Z,0.00
2023-07-18T02:06:25.745Z,0.00
2023-07-18T02:07:23.918Z,0.00
2023-07-18T02:08:23.901Z,0.00
2023-07-18T02:09:23.876Z,0.00
2023-07-18T02:10:24.736Z,0.00
2023-07-18T02:11:24.737Z,0.00
2023-07-18T02:12:23.850Z,0.00
2023-07-18T02:13:23.836Z,0.00
2023-07-18T02:14:23.870Z,0.00
2023-07-18T02:15:24.739Z,0.00
2023-07-18T02:16:26.768Z,0.00
2023-07-18T02:17:26.767Z,0.00
2023-07-18T02:18:24.731Z,0.00
2023-07-18T02:19:25.813Z,0.00
2023-07-18T02:20:23.758Z,0.00
2023-07-18T02:21:25.828Z,0.00
2023-07-18T02:22:24.234Z,0.00
2023-07-18T02:23:24.245Z,0.00
2023-07-18T02:24:23.706Z,0.00
2023-07-18T02:25:23.719Z,0.00
2023-07-18T02:26:23.781Z,0.00
2023-07-18T02:27:26.237Z,0.00
2023-07-18T02:28:23.670Z,0.00
2023-07-18T02:29:24.254Z,0.00
2023-07-18T02:30:23.682Z,0.00
2023-07-18T02:31:24.305Z,0.00
2023-07-18T02:32:23.777Z,0.00
2023-07-18T02:33:23.771Z,0.00
2023-07-18T02:34:23.611Z,0.00
2023-07-18T02:35:23.610Z,0.00
2023-07-18T02:36:23.761Z,0.00
2023-07-18T02:37:24.245Z,0.00
2023-07-18T02:38:23.550Z,0.00
2023-07-18T02:39:23.549Z,0.00
2023-07-18T02:40:23.774Z,0.00
2023-07-18T02:41:23.525Z,0.00
2023-07-18T02:42:30.235Z,0.00
2023-07-18T02:43:23.528Z,0.00
2023-07-18T02:44:23.516Z,0.00
2023-07-18T02:45:44.806Z,0.00
2023-07-18T02:46:26.288Z,0.00
2023-07-18T02:47:23.490Z,0.00
2023-07-18T02:48:30.247Z,0.00
2023-07-18T02:49:24.243Z,0.00
2023-07-18T02:50:23.451Z,0.00
2023-07-18T02:51:23.472Z,0.00
2023-07-18T02:52:23.399Z,0.00
2023-07-18T02:53:23.415Z,0.00
2023-07-18T02:54:23.374Z,0.00
2023-07-18T02:55:23.366Z,0.00
2023-07-18T02:56:23.379Z,0.00
2023-07-18T02:57:24.292Z,0.00
2023-07-18T02:58:26.248Z,0.00
2023-07-18T02:59:24.233Z,0.00
2023-07-18T03:00:23.350Z,0.00
2023-07-18T03:01:24.319Z,0.00
2023-07-18T03:02:24.274Z,0.00
2023-07-18T03:03:24.479Z,0.00
2023-07-18T03:04:24.242Z,0.00
2023-07-18T03:05:23.786Z,0.00
2023-07-18T03:06:23.254Z,0.00
2023-07-18T03:07:23.230Z,0.00
2023-07-18T03:08:23.225Z,0.00
2023-07-18T03:09:23.205Z,0.00
2023-07-18T03:10:23.201Z,0.00
2023-07-18T03:11:23.206Z,0.00
2023-07-18T03:12:25.777Z,0.00
2023-07-18T03:13:23.162Z,0.00
2023-07-18T03:14:25.761Z,0.00
2023-07-18T03:15:23.138Z,0.00
2023-07-18T03:16:23.152Z,0.00
2023-07-18T03:17:23.194Z,0.00
2023-07-18T03:18:23.141Z,0.00
2023-07-18T03:19:23.095Z,0.00
2023-07-18T03:20:23.088Z,0.00
2023-07-18T03:21:23.080Z,0.00
2023-07-18T03:22:23.062Z,0.00
2023-07-18T03:23:23.077Z,0.00
2023-07-18T03:24:23.053Z,0.00
2023-07-18T03:25:23.030Z,0.00
2023-07-18T03:26:23.742Z,0.00
2023-07-18T03:27:23.018Z,0.00
2023-07-18T03:28:23.274Z,0.00
2023-07-18T03:29:22.973Z,0.00
2023-07-18T03:30:23.001Z,0.00
2023-07-18T03:31:22.967Z,0.00
2023-07-18T03:32:22.974Z,0.00
2023-07-18T03:33:23.000Z,0.00
2023-07-18T03:34:22.949Z,0.00
2023-07-18T03:35:23.753Z,0.00
2023-07-18T03:36:25.759Z,0.00
2023-07-18T03:37:22.898Z,0.00
2023-07-18T03:38:25.776Z,0.00
2023-07-18T03:39:22.903Z,0.00
2023-07-18T03:40:23.743Z,5.62
2023-07-18T03:41:22.845Z,5.62
2023-07-18T03:42:22.838Z,5.62
2023-07-18T03:43:22.859Z,5.62
2023-07-18T03:44:23.278Z,5.62
2023-07-18T03:45:23.752Z,5.62
2023-07-18T03:46:23.032Z,5.62
2023-07-18T03:47:31.251Z,5.62
2023-07-18T03:48:22.811Z,5.62
2023-07-18T03:49:22.782Z,5.62
2023-07-18T03:50:22.769Z,5.62
2023-07-18T03:51:26.046Z,5.62
2023-07-18T03:52:23.246Z,5.62
2023-07-18T03:53:22.744Z,5.62
2023-07-18T03:54:22.712Z,5.62
2023-07-18T03:55:25.391Z,5.62
2023-07-18T03:56:22.793Z,5.62
2023-07-18T03:57:22.696Z,5.62
2023-07-18T03:58:23.244Z,5.62
2023-07-18T03:59:22.655Z,11.25
2023-07-18T04:00:23.694Z,11.25
2023-07-18T04:01:22.743Z,11.25
2023-07-18T04:02:22.656Z,11.25
2023-07-18T04:03:22.627Z,11.25
2023-07-18T04:04:23.625Z,11.25
2023-07-18T04:05:22.624Z,11.25
2023-07-18T04:06:22.588Z,11.25
2023-07-18T04:07:22.582Z,16.88
2023-07-18T04:08:22.559Z,16.88
2023-07-18T04:09:23.240Z,16.88
2023-07-18T04:10:23.264Z,16.88
2023-07-18T04:11:23.000Z,16.88
2023-07-18T04:12:22.976Z,16.88
2023-07-18T04:13:23.243Z,16.88
2023-07-18T04:14:24.270Z,16.88
2023-07-18T04:15:22.472Z,16.88
2023-07-18T04:16:25.655Z,16.88
2023-07-18T04:17:23.269Z,16.88
2023-07-18T04:18:22.474Z,16.88
2023-07-18T04:19:23.255Z,16.88
2023-07-18T04:20:22.422Z,16.88
2023-07-18T04:21:37.263Z,16.88
2023-07-18T04:22:22.404Z,22.50
2023-07-18T04:23:23.251Z,22.50
2023-07-18T04:24:22.793Z,22.50
2023-07-18T04:25:25.256Z,22.50
2023-07-18T04:26:22.360Z,28.12
2023-07-18T04:27:22.345Z,28.12
2023-07-18T04:28:22.355Z,28.12
2023-07-18T04:29:22.790Z,28.12
2023-07-18T04:30:22.335Z,33.75
2023-07-18T04:31:23.577Z,33.75
2023-07-18T04:32:22.302Z,33.75
2023-07-18T04:33:22.272Z,33.75
2023-07-18T04:34:22.273Z,33.75
2023-07-18T04:35:22.266Z,33.75
2023-07-18T04:36:22.275Z,39.38
2023-07-18T04:37:22.251Z,39.38
2023-07-18T04:38:36.767Z,39.38
2023-07-18T04:39:22.298Z,39.38
2023-07-18T04:40:36.746Z,39.38
2023-07-18T04:41:22.491Z,39.38
2023-07-18T04:42:22.193Z,39.38
2023-07-18T04:43:22.162Z,39.38
2023-07-18T04:44:24.790Z,39.38
2023-07-18T04:45:23.153Z,39.38
2023-07-18T04:46:22.201Z,39.38
2023-07-18T04:47:23.225Z,39.38
2023-07-18T04:48:22.188Z,45.00
2023-07-18T04:49:22.108Z,45.00
2023-07-18T04:50:22.101Z,45.00
2023-07-18T04:51:22.070Z,50.62
2023-07-18T04:52:22.750Z,50.62
2023-07-18T04:53:23.100Z,45.00
2023-07-18T04:54:22.039Z,45.00
2023-07-18T04:55:22.760Z,45.00
2023-07-18T04:56:22.031Z,45.00
2023-07-18T04:57:24.768Z,45.00
2023-07-18T04:58:22.005Z,45.00
2023-07-18T04:59:24.762Z,45.00
2023-07-18T05:00:21.972Z,50.62
2023-07-18T05:01:22.255Z,50.62
2023-07-18T05:02:21.962Z,56.25
2023-07-18T05:03:24.809Z,56.25
2023-07-18T05:04:22.012Z,56.25
2023-07-18T05:05:28.760Z,50.62
2023-07-18T05:06:24.766Z,50.62
2023-07-18T05:07:22.768Z,45.00
2023-07-18T05:08:22.755Z,45.00
2023-07-18T05:09:21.905Z,45.00
2023-07-18T05:10:22.762Z,45.00
2023-07-18T05:11:23.053Z,45.00
2023-07-18T05:12:21.846Z,45.00
2023-07-18T05:13:21.820Z,45.00
2023-07-18T05:14:21.828Z,45.00
2023-07-18T05:15:21.800Z,45.00
2023-07-18T05:16:22.805Z,45.00
2023-07-18T05:17:21.855Z,45.00
2023-07-18T05:18:21.770Z,45.00
2023-07-18T05:19:21.768Z,50.62
2023-07-18T05:20:21.757Z,50.62
2023-07-18T05:21:21.995Z,50.62
2023-07-18T05:22:21.747Z,50.62
2023-07-18T05:23:21.778Z,50.62
2023-07-18T05:24:21.703Z,50.62
2023-07-18T05:25:22.287Z,50.62
2023-07-18T05:26:24.259Z,50.62
2023-07-18T05:27:21.689Z,50.62
2023-07-18T05:28:22.258Z,50.62
2023-07-18T05:29:21.670Z,50.62
2023-07-18T05:30:21.678Z,50.62
2023-07-18T05:31:21.973Z,50.62
2023-07-18T05:32:21.742Z,50.62
2023-07-18T05:33:22.636Z,50.62
2023-07-18T05:34:21.595Z,50.62
2023-07-18T05:35:24.266Z,50.62
2023-07-18T05:36:21.584Z,50.62
2023-07-18T05:37:21.564Z,56.25
2023-07-18T05:38:22.260Z,56.25
2023-07-18T05:39:22.272Z,56.25
2023-07-18T05:40:22.709Z,56.25
2023-07-18T05:41:21.901Z,50.62
2023-07-18T05:42:21.512Z,50.62
2023-07-18T05:43:22.535Z,50.62
2023-07-18T05:44:21.773Z,50.62
2023-07-18T05:45:21.508Z,50.62
2023-07-18T05:46:21.479Z,50.62
2023-07-18T05:47:21.458Z,50.62
2023-07-18T05:48:21.457Z,50.62
2023-07-18T05:49:21.461Z,50.62
2023-07-18T05:50:22.258Z,50.62
2023-07-18T05:51:21.832Z,50.62
2023-07-18T05:52:21.388Z,50.62
2023-07-18T05:53:22.445Z,50.62
2023-07-18T05:54:21.366Z,50.62
2023-07-18T05:55:23.358Z,50.62
2023-07-18T05:56:21.349Z,50.62
2023-07-18T05:57:22.278Z,56.25
2023-07-18T05:58:21.362Z,56.25
2023-07-18T05:59:21.333Z,56.25
2023-07-18T06:00:22.267Z,56.25
2023-07-18T06:01:21.581Z,56.25
2023-07-18T06:02:22.259Z,56.25
2023-07-18T06:03:21.390Z,56.25
2023-07-18T06:04:21.376Z,56.25
2023-07-18T06:05:21.282Z,56.25
2023-07-18T06:06:22.285Z,50.62
2023-07-18T06:07:21.238Z,56.25
2023-07-18T06:08:21.227Z,56.25
2023-07-18T06:09:21.209Z,56.25
2023-07-18T06:10:21.201Z,56.25
2023-07-18T06:11:21.334Z,56.25
2023-07-18T06:12:21.170Z,56.25
2023-07-18T06:13:22.210Z,56.25
2023-07-18T06:14:21.173Z,56.25
2023-07-18T06:15:21.157Z,56.25
2023-07-18T06:16:21.171Z,56.25
2023-07-18T06:17:21.167Z,56.25
2023-07-18T06:18:21.981Z,56.25
2023-07-18T06:19:21.774Z,56.25
2023-07-18T06:20:21.779Z,56.25
2023-07-18T06:21:21.352Z,56.25
2023-07-18T06:22:21.056Z,56.25
2023-07-18T06:23:21.054Z,56.25
2023-07-18T06:24:21.049Z,56.25
2023-07-18T06:25:21.028Z,56.25
2023-07-18T06:26:21.032Z,56.25
2023-07-18T06:27:21.016Z,56.25
2023-07-18T06:28:20.987Z,56.25
2023-07-18T06:29:21.182Z,56.25
2023-07-18T06:30:20.984Z,61.88
2023-07-18T06:31:21.307Z,61.88
2023-07-18T06:32:20.946Z,61.88
2023-07-18T06:33:20.937Z,61.88
2023-07-18T06:34:21.962Z,61.88
2023-07-18T06:35:24.079Z,61.88
2023-07-18T06:36:20.977Z,61.88
2023-07-18T06:37:20.888Z,61.88
2023-07-18T06:38:20.875Z,61.88
2023-07-18T06:39:20.860Z,61.88
2023-07-18T06:40:20.897Z,61.88
2023-07-18T06:41:21.114Z,61.88
2023-07-18T06:42:20.840Z,61.88
2023-07-18T06:43:20.830Z,61.88
2023-07-18T06:44:20.814Z,61.88
2023-07-18T06:45:21.793Z,61.88
2023-07-18T06:46:20.869Z,61.88
2023-07-18T06:47:20.780Z,61.88
2023-07-18T06:48:20.770Z,61.88
2023-07-18T06:49:21.276Z,61.88
2023-07-18T06:50:20.762Z,61.88
2023-07-18T06:51:21.030Z,61.88
2023-07-18T06:52:20.798Z,61.88
2023-07-18T06:53:20.719Z,61.88
2023-07-18T06:54:20.718Z,61.88
2023-07-18T06:55:20.687Z,61.88
2023-07-18T06:56:20.684Z,61.88
2023-07-18T06:57:20.661Z,61.88
2023-07-18T06:58:20.796Z,61.88
2023-07-18T06:59:20.658Z,61.88
2023-07-18T07:00:21.653Z,61.88
2023-07-18T07:01:20.932Z,61.88
2023-07-18T07:02:20.753Z,61.88
2023-07-18T07:03:20.695Z,61.88
2023-07-18T07:04:20.684Z,61.88
2023-07-18T07:05:20.614Z,61.88
2023-07-18T07:06:20.564Z,61.88
2023-07-18T07:07:20.561Z,61.88
2023-07-18T07:08:20.795Z,61.88
2023-07-18T07:09:21.544Z,61.88
2023-07-18T07:10:20.553Z,61.88
2023-07-18T07:11:20.877Z,61.88
2023-07-18T07:12:34.569Z,61.88
2023-07-18T07:13:22.270Z,61.88
2023-07-18T07:14:21.518Z,67.50
2023-07-18T07:15:20.470Z,67.50
2023-07-18T07:16:20.486Z,67.50
2023-07-18T07:17:22.361Z,67.50
2023-07-18T07:18:20.423Z,67.50
2023-07-18T07:19:20.426Z,67.50
2023-07-18T07:20:20.417Z,67.50
2023-07-18T07:21:20.659Z,67.50
2023-07-18T07:22:20.383Z,67.50
2023-07-18T07:23:20.385Z,67.50
2023-07-18T07:24:21.319Z,67.50
2023-07-18T07:25:24.864Z,67.50
2023-07-18T07:26:20.340Z,67.50
2023-07-18T07:27:20.337Z,67.50
2023-07-18T07:28:20.362Z,67.50
2023-07-18T07:29:20.372Z,67.50
2023-07-18T07:30:20.331Z,67.50
2023-07-18T07:31:20.600Z,67.50
2023-07-18T07:32:21.325Z,67.50
2023-07-18T07:33:20.793Z,67.50
2023-07-18T07:34:26.771Z,67.50
2023-07-18T07:35:20.313Z,67.50
2023-07-18T07:36:20.793Z,67.50
2023-07-18T07:37:21.228Z,67.50
2023-07-18T07:38:20.221Z,67.50
2023-07-18T07:39:20.201Z,67.50
2023-07-18T07:40:20.298Z,67.50
2023-07-18T07:41:22.926Z,67.50
2023-07-18T07:42:24.781Z,67.50
2023-07-18T07:43:22.826Z,67.50
2023-07-18T07:44:20.138Z,67.50
2023-07-18T07:45:20.135Z,67.50
2023-07-18T07:46:20.268Z,67.50
2023-07-18T07:47:21.171Z,67.50
2023-07-18T07:48:20.771Z,67.50
2023-07-18T07:49:22.806Z,67.50
2023-07-18T07:50:20.815Z,67.50
2023-07-18T07:51:20.215Z,67.50
2023-07-18T07:52:20.297Z,67.50
2023-07-18T07:53:20.091Z,67.50
2023-07-18T07:54:20.039Z,67.50
2023-07-18T07:55:20.779Z,67.50
2023-07-18T07:56:20.770Z,67.50
2023-07-18T07:57:21.344Z,67.50
2023-07-18T07:58:20.771Z,67.50
2023-07-18T07:59:20.002Z,67.50
2023-07-18T08:00:20.158Z,67.50
2023-07-18T08:01:20.146Z,67.50
2023-07-18T08:02:22.997Z,67.50
2023-07-18T08:03:19.987Z,67.50
2023-07-18T08:04:20.784Z,67.50
2023-07-18T08:05:20.822Z,67.50
2023-07-18T08:06:22.785Z,67.50
2023-07-18T08:07:20.783Z,67.50
2023-07-18T08:08:19.888Z,67.50
2023-07-18T08:09:19.886Z,67.50
2023-07-18T08:10:22.809Z,67.50
2023-07-18T08:11:20.045Z,67.50
2023-07-18T08:12:20.798Z,67.50
2023-07-18T08:13:19.823Z,67.50
2023-07-18T08:14:19.803Z,67.50
2023-07-18T08:15:20.319Z,67.50
2023-07-18T08:16:19.892Z,67.50
2023-07-18T08:17:19.830Z,67.50
2023-07-18T08:18:19.791Z,67.50
2023-07-18T08:19:19.747Z,67.50
2023-07-18T08:20:22.338Z,67.50
2023-07-18T08:21:26.315Z,67.50
2023-07-18T08:22:19.801Z,67.50
2023-07-18T08:23:20.321Z,67.50
2023-07-18T08:24:19.695Z,67.50
2023-07-18T08:25:19.810Z,61.88
2023-07-18T08:26:20.683Z,67.50
2023-07-18T08:27:19.657Z,67.50
2023-07-18T08:28:19.987Z,67.50
2023-07-18T08:29:26.332Z,67.50
2023-07-18T08:30:22.321Z,67.50
2023-07-18T08:31:19.868Z,67.50
2023-07-18T08:32:43.336Z,67.50
2023-07-18T08:33:19.610Z,67.50
2023-07-18T08:34:21.656Z,67.50
2023-07-18T08:35:19.564Z,67.50
2023-07-18T08:36:19.680Z,67.50
2023-07-18T08:37:20.411Z,67.50
2023-07-18T08:38:23.325Z,67.50
2023-07-18T08:39:20.276Z,67.50
2023-07-18T08:40:19.529Z,67.50
2023-07-18T08:41:19.729Z,67.50
2023-07-18T08:42:19.518Z,67.50
2023-07-18T08:43:26.293Z,67.50
2023-07-18T08:44:19.503Z,67.50
2023-07-18T08:45:19.459Z,67.50
2023-07-18T08:46:20.582Z,67.50
2023-07-18T08:47:26.298Z,67.50
2023-07-18T08:48:19.567Z,67.50
2023-07-18T08:49:19.433Z,67.50
2023-07-18T08:50:19.458Z,67.50
2023-07-18T08:51:19.700Z,67.50
2023-07-18T08:52:22.355Z,67.50
2023-07-18T08:53:19.412Z,67.50
2023-07-18T08:54:19.391Z,67.50
2023-07-18T08:55:19.397Z,67.50
2023-07-18T08:56:19.373Z,67.50
2023-07-18T08:57:19.338Z,67.50
2023-07-18T08:58:19.367Z,67.50
2023-07-18T08:59:19.321Z,67.50
2023-07-18T09:00:19.327Z,67.50
2023-07-18T09:01:19.806Z,67.50
2023-07-18T09:02:19.290Z,67.50
2023-07-18T09:03:19.817Z,67.50
2023-07-18T09:04:19.324Z,67.50
2023-07-18T09:05:19.246Z,67.50
2023-07-18T09:06:19.315Z,67.50
2023-07-18T09:07:21.794Z,67.50
2023-07-18T09:08:19.226Z,67.50
2023-07-18T09:09:19.317Z,67.50
2023-07-18T09:10:19.829Z,73.12
2023-07-18T09:11:19.487Z,73.12
2023-07-18T09:12:19.195Z,73.12
2023-07-18T09:13:19.313Z,67.50
2023-07-18T09:14:19.159Z,67.50
2023-07-18T09:15:19.138Z,67.50
2023-07-18T09:16:19.133Z,67.50
2023-07-18T09:17:19.168Z,67.50
2023-07-18T09:18:19.106Z,67.50
2023-07-18T09:19:19.106Z,67.50
2023-07-18T09:20:19.101Z,67.50
2023-07-18T09:21:19.373Z,73.12
2023-07-18T09:22:19.082Z,73.12
2023-07-18T09:23:19.062Z,73.12
2023-07-18T09:24:19.324Z,73.12
2023-07-18T09:25:19.106Z,78.75
2023-07-18T09:26:19.029Z,78.75
2023-07-18T09:27:19.061Z,84.38
2023-07-18T09:28:21.815Z,84.38
2023-07-18T09:29:19.000Z,84.38
2023-07-18T09:30:19.827Z,90.00
2023-07-18T09:31:19.568Z,90.00
2023-07-18T09:32:19.019Z,95.62
2023-07-18T09:33:18.934Z,95.62
2023-07-18T09:34:18.944Z,101.25
2023-07-18T09:35:18.910Z,101.25
2023-07-18T09:36:18.897Z,106.88
2023-07-18T09:37:19.795Z,112.50
2023-07-18T09:38:18.871Z,112.50
2023-07-18T09:39:18.878Z,118.12
2023-07-18T09:40:19.006Z,118.12
2023-07-18T09:41:21.500Z,123.75
2023-07-18T09:43:18.845Z,118.12
2023-07-18T09:44:31.320Z,123.75
2023-07-18T09:45:19.816Z,123.75
2023-07-18T09:46:18.989Z,123.75
2023-07-18T09:47:19.293Z,123.75
2023-07-18T09:48:18.908Z,123.75
2023-07-18T09:49:18.764Z,123.75
2023-07-18T09:50:18.813Z,123.75
2023-07-18T09:51:33.303Z,123.75
2023-07-18T09:52:25.296Z,123.75
2023-07-18T09:53:18.753Z,123.75
2023-07-18T09:54:18.709Z,123.75
2023-07-18T09:55:18.702Z,118.12
2023-07-18T09:56:18.681Z,123.75
2023-07-18T09:57:18.688Z,123.75
2023-07-18T09:58:18.661Z,118.12
2023-07-18T09:59:18.671Z,118.12
2023-07-18T10:00:18.664Z,118.12
2023-07-18T10:01:19.005Z,118.12
2023-07-18T10:02:18.610Z,118.12
2023-07-18T10:03:18.657Z,118.12
2023-07-18T10:04:25.327Z,118.12
2023-07-18T10:05:18.587Z,118.12
2023-07-18T10:06:19.311Z,118.12
2023-07-18T10:07:18.586Z,118.12
2023-07-18T10:08:18.549Z,118.12
2023-07-18T10:09:25.304Z,112.50
2023-07-18T10:10:18.531Z,106.88
2023-07-18T10:11:18.990Z,112.50
2023-07-18T10:12:18.496Z,106.88
2023-07-18T10:13:19.029Z,101.25
2023-07-18T10:14:18.481Z,95.62
2023-07-18T10:15:19.300Z,84.38
2023-07-18T10:16:21.337Z,78.75
2023-07-18T10:17:19.334Z,84.38
2023-07-18T10:18:18.923Z,95.62
2023-07-18T10:19:18.447Z,95.62
2023-07-18T10:20:18.409Z,101.25
2023-07-18T10:21:18.874Z,112.50
2023-07-18T10:22:18.392Z,106.88
2023-07-18T10:23:18.502Z,95.62
2023-07-18T10:24:18.363Z,101.25
2023-07-18T10:25:18.379Z,106.88
2023-07-18T10:26:18.354Z,101.25
2023-07-18T10:27:18.339Z,118.12
2023-07-18T10:28:19.299Z,123.75
2023-07-18T10:29:18.470Z,129.38
2023-07-18T10:30:20.798Z,123.75
2023-07-18T10:31:18.565Z,123.75
2023-07-18T10:32:18.268Z,123.75
2023-07-18T10:33:18.269Z,118.12
2023-07-18T10:34:18.272Z,123.75
2023-07-18T10:35:18.339Z,129.38
2023-07-18T10:36:20.822Z,135.00
2023-07-18T10:37:18.290Z,146.25
2023-07-18T10:38:18.223Z,151.88
2023-07-18T10:39:18.803Z,174.38
2023-07-18T10:40:20.826Z,196.88
2023-07-18T10:41:18.506Z,225.00
2023-07-18T10:42:18.340Z,236.25
2023-07-18T10:43:18.810Z,241.88
2023-07-18T10:44:18.149Z,258.75
2023-07-18T10:45:18.155Z,258.75
2023-07-18T10:46:18.206Z,241.88
2023-07-18T10:47:18.216Z,230.62
2023-07-18T10:48:18.162Z,230.62
2023-07-18T10:49:18.099Z,225.00
2023-07-18T10:50:20.175Z,213.75
2023-07-18T10:51:18.357Z,196.88
2023-07-18T10:52:18.062Z,196.88
2023-07-18T10:53:18.061Z,185.62
2023-07-18T10:54:18.065Z,180.00
2023-07-18T10:55:18.026Z,174.38
2023-07-18T10:56:18.002Z,174.38
2023-07-18T10:57:18.014Z,174.38
2023-07-18T10:58:17.997Z,180.00
2023-07-18T10:59:17.983Z,191.25
2023-07-18T11:00:17.989Z,196.88
2023-07-18T11:01:24.945Z,202.50
2023-07-18T11:02:17.958Z,202.50
2023-07-18T11:03:17.936Z,196.88
2023-07-18T11:04:18.854Z,196.88
2023-07-18T11:05:17.938Z,191.25
2023-07-18T11:06:17.893Z,191.25
2023-07-18T11:07:17.890Z,196.88
2023-07-18T11:08:17.877Z,191.25
2023-07-18T11:09:19.654Z,191.25
2023-07-18T11:10:17.857Z,180.00
2023-07-18T11:11:18.185Z,174.38
2023-07-18T11:12:17.838Z,157.50
2023-07-18T11:13:17.839Z,151.88
2023-07-18T11:14:17.809Z,151.88
2023-07-18T11:15:17.795Z,157.50
2023-07-18T11:16:18.363Z,157.50
2023-07-18T11:17:17.812Z,163.12
2023-07-18T11:18:18.319Z,168.75
2023-07-18T11:19:17.858Z,163.12
2023-07-18T11:20:20.322Z,163.12
2023-07-18T11:21:20.808Z,157.50
2023-07-18T11:22:17.721Z,151.88
2023-07-18T11:23:17.846Z,146.25
2023-07-18T11:24:17.741Z,146.25
2023-07-18T11:25:18.323Z,151.88
2023-07-18T11:26:17.769Z,157.50
2023-07-18T11:27:17.687Z,168.75
2023-07-18T11:28:20.319Z,180.00
2023-07-18T11:29:17.665Z,185.62
2023-07-18T11:30:17.652Z,202.50
2023-07-18T11:31:23.587Z,225.00
2023-07-18T11:32:18.598Z,236.25
2023-07-18T11:33:17.695Z,253.12
2023-07-18T11:34:20.315Z,258.75
2023-07-18T11:35:17.600Z,253.12
2023-07-18T11:36:17.842Z,247.50
2023-07-18T11:37:18.321Z,236.25
2023-07-18T11:38:18.315Z,202.50
2023-07-18T11:39:20.009Z,185.62
2023-07-18T11:40:17.510Z,174.38
2023-07-18T11:41:17.881Z,180.00
2023-07-18T11:42:18.320Z,163.12
2023-07-18T11:43:18.338Z,163.12
2023-07-18T11:44:17.485Z,157.50
2023-07-18T11:45:19.933Z,146.25
2023-07-18T11:46:17.466Z,140.62
2023-07-18T11:47:20.334Z,146.25
2023-07-18T11:48:18.384Z,151.88
2023-07-18T11:49:17.437Z,146.25
2023-07-18T11:50:17.409Z,146.25
2023-07-18T11:51:18.161Z,163.12
2023-07-18T11:52:17.423Z,157.50
2023-07-18T11:53:17.381Z,135.00
2023-07-18T11:54:18.329Z,146.25
2023-07-18T11:55:18.349Z,191.25
2023-07-18T11:56:17.362Z,219.38
2023-07-18T11:57:17.342Z,230.62
2023-07-18T11:58:17.336Z,241.88
2023-07-18T11:59:17.314Z,241.88
2023-07-18T12:00:17.305Z,180.00
2023-07-18T12:01:17.809Z,168.75
2023-07-18T12:02:17.338Z,168.75
2023-07-18T12:03:23.997Z,163.12
2023-07-18T12:04:17.329Z,191.25
2023-07-18T12:05:17.564Z,196.88
2023-07-18T12:06:17.352Z,174.38
2023-07-18T12:07:17.219Z,151.88
2023-07-18T12:08:17.222Z,135.00
2023-07-18T12:09:17.195Z,123.75
2023-07-18T12:10:26.073Z,123.75
2023-07-18T12:11:17.189Z,135.00
2023-07-18T12:12:17.838Z,140.62
2023-07-18T12:13:19.844Z,157.50
2023-07-18T12:14:17.164Z,163.12
2023-07-18T12:15:17.151Z,180.00
2023-07-18T12:16:17.476Z,168.75
2023-07-18T12:17:17.121Z,219.38
2023-07-18T12:18:23.834Z,146.25
2023-07-18T12:19:17.837Z,163.12
2023-07-18T12:20:17.829Z,140.62
2023-07-18T12:21:23.857Z,140.62
2023-07-18T12:22:17.081Z,140.62
2023-07-18T12:23:17.074Z,140.62
2023-07-18T12:24:17.036Z,146.25
2023-07-18T12:25:17.839Z,230.62
2023-07-18T12:26:17.012Z,230.62
2023-07-18T12:27:17.364Z,230.62
2023-07-18T12:28:17.831Z,225.00
2023-07-18T12:29:17.055Z,208.12
2023-07-18T12:30:16.969Z,191.25
2023-07-18T12:31:17.312Z,230.62
2023-07-18T12:32:17.034Z,230.62
2023-07-18T12:33:17.887Z,236.25
2023-07-18T12:34:16.951Z,230.62
2023-07-18T12:35:16.910Z,219.38
2023-07-18T12:36:20.032Z,213.75
2023-07-18T12:37:18.934Z,208.12
2023-07-18T12:38:18.864Z,208.12
2023-07-18T12:39:16.884Z,208.12
2023-07-18T12:40:17.927Z,213.75
2023-07-18T12:41:16.898Z,123.75
2023-07-18T12:42:16.872Z,129.38
2023-07-18T12:43:16.829Z,135.00
2023-07-18T12:44:16.817Z,241.88
2023-07-18T12:45:17.338Z,241.88
2023-07-18T12:46:23.590Z,191.25
2023-07-18T12:47:16.787Z,230.62
2023-07-18T12:48:16.793Z,236.25
2023-07-18T12:49:56.397Z,236.25
2023-07-18T12:50:17.768Z,157.50
2023-07-18T12:51:16.747Z,151.88
2023-07-18T12:52:17.358Z,163.12
2023-07-18T12:53:19.363Z,174.38
2023-07-18T12:54:16.869Z,264.38
2023-07-18T12:55:16.720Z,258.75